Time;durP1;ratioP1;P1;durP2;ratioP2;P2;SDS_P1;SDS_P2;PMS_P1;PMS_P2;Temp;Humidity;BMP_temperature;BMP_pressure;BME280_temperature;BME280_humidity;BME280_pressure;Samples;Min_cycle;Max_cycle;Signal;HPM_P1;HPM_P2
2023/02/07 00:01:18;;;;;;;23.52;12.10;;;;;;;-6.01;77.42;102570.88;1403594;88;21257;-82
2023/02/07 00:03:45;;;;;;;23.57;10.80;;;;;;;-6.00;77.34;102580.32;1395473;88;21450;-82
2023/02/07 00:06:19;;;;;;;21.45;11.28;;;;;;;-6.04;77.32;102583.74;1403604;88;21265;-82
2023/02/07 00:08:46;;;;;;;23.07;13.32;;;;;;;-6.01;77.32;102583.77;1559176;88;21184;-83
2023/02/07 00:11:18;;;;;;;25.80;12.23;;;;;;;-5.97;77.31;102586.78;1403978;88;22241;-82
2023/02/07 00:13:47;;;;;;;22.73;11.22;;;;;;;-5.94;77.48;102585.52;1559000;88;21332;-82
2023/02/07 00:16:14;;;;;;;20.60;11.85;;;;;;;-5.96;77.89;102576.89;1433144;88;21361;-79
2023/02/07 00:18:40;;;;;;;23.90;10.30;;;;;;;-5.92;77.93;102583.78;1468919;88;21441;-81
2023/02/07 00:21:14;;;;;;;26.77;13.25;;;;;;;-5.89;77.91;102589.39;1469813;88;21866;-81
2023/02/07 00:23:42;;;;;;;29.95;12.70;;;;;;;-5.88;78.00;102587.67;1475508;88;21405;-81
2023/02/07 00:26:10;;;;;;;21.52;11.50;;;;;;;-5.85;78.05;102591.55;1468800;88;22455;-81
2023/02/07 00:28:36;;;;;;;23.95;11.30;;;;;;;-5.84;77.63;102598.43;1471844;88;21425;-82
2023/02/07 00:31:12;;;;;;;20.55;10.85;;;;;;;-5.80;77.64;102606.64;1475699;88;21345;-81
2023/02/07 00:33:41;;;;;;;22.77;12.90;;;;;;;-5.80;77.81;102602.77;1471340;88;23027;-81
2023/02/07 00:36:12;;;;;;;31.17;12.00;;;;;;;-5.76;77.45;102601.48;1437030;88;21405;-80
2023/02/07 00:38:38;;;;;;;14.93;7.10;;;;;;;-5.79;77.65;102600.62;1471521;88;21567;-80
2023/02/07 00:41:05;;;;;;;26.27;12.15;;;;;;;-5.79;77.82;102590.30;1474761;88;22373;-82
2023/02/07 00:43:32;;;;;;;25.52;12.37;;;;;;;-5.80;77.98;102584.72;1468411;88;21375;-81
2023/02/07 00:46:00;;;;;;;24.07;11.48;;;;;;;-5.78;77.98;102579.12;1471081;88;21294;-81
2023/02/07 00:48:28;;;;;;;23.75;12.13;;;;;;;-5.79;78.11;102576.97;1382624;89;22200;-80
2023/02/07 00:50:55;;;;;;;26.70;13.28;;;;;;;-5.78;78.17;102581.70;1396809;88;21457;-80
2023/02/07 00:53:22;;;;;;;36.73;14.15;;;;;;;-5.74;77.92;102575.72;1397439;88;21243;-81
2023/02/07 00:55:48;;;;;;;26.27;13.32;;;;;;;-5.74;77.86;102579.16;1403471;88;21397;-81
2023/02/07 00:58:15;;;;;;;23.65;12.63;;;;;;;-5.74;77.90;102571.85;1397762;88;21235;-80
2023/02/07 01:00:41;;;;;;;25.57;11.93;;;;;;;-5.76;78.05;102567.96;1465975;88;21545;-81
2023/02/07 01:03:08;;;;;;;23.20;11.93;;;;;;;-5.78;78.12;102567.52;1466896;88;21403;-83
2023/02/07 01:05:34;;;;;;;29.60;12.18;;;;;;;-5.78;78.27;102558.48;1472390;88;21479;-82
2023/02/07 01:08:01;;;;;;;22.73;11.57;;;;;;;-5.74;77.96;102558.52;1472119;88;21428;-81
2023/02/07 01:10:28;;;;;;;30.52;14.63;;;;;;;-5.75;78.07;102557.23;1473554;88;21330;-81
2023/02/07 01:12:54;;;;;;;25.77;13.65;;;;;;;-5.78;78.36;102550.34;1472991;88;22513;-81
2023/02/07 01:15:21;;;;;;;28.30;12.40;;;;;;;-5.72;78.01;102552.09;1471441;88;21427;-82
2023/02/07 01:17:48;;;;;;;26.10;13.93;;;;;;;-5.72;78.30;102557.25;1474591;88;21561;-82
2023/02/07 01:20:14;;;;;;;27.60;12.07;;;;;;;-5.70;77.95;102552.94;1475801;88;22307;-84
2023/02/07 01:22:41;;;;;;;26.17;12.73;;;;;;;-5.74;78.15;102553.36;1475765;88;22277;-84
2023/02/07 01:25:09;;;;;;;24.98;13.05;;;;;;;-5.65;77.82;102553.84;1470928;88;21434;-85
2023/02/07 01:27:35;;;;;;;24.37;12.80;;;;;;;-5.62;77.56;102551.27;1473068;88;21887;-83
2023/02/07 01:30:03;;;;;;;20.88;10.35;;;;;;;-5.61;77.61;102554.70;1470354;88;21574;-84
2023/02/07 01:32:32;;;;;;;24.75;12.23;;;;;;;-5.61;77.67;102549.55;1469665;88;21391;-79
2023/02/07 01:34:59;;;;;;;27.05;13.00;;;;;;;-5.58;77.70;102545.28;1474951;88;21494;-84
2023/02/07 01:37:26;;;;;;;30.23;15.05;;;;;;;-5.58;77.76;102535.37;1475408;88;21575;-84
2023/02/07 01:39:52;;;;;;;21.93;10.85;;;;;;;-5.55;77.93;102541.43;1474109;88;21433;-85
2023/02/07 01:42:18;;;;;;;25.80;14.60;;;;;;;-5.55;77.89;102541.43;1443220;88;22951;-84
2023/02/07 01:44:53;;;;;;;22.07;11.73;;;;;;;-5.54;77.94;102543.14;1463105;88;21814;-81
2023/02/07 01:47:22;;;;;;;20.90;10.78;;;;;;;-5.57;78.24;102535.83;1471434;88;21419;-81
2023/02/07 01:49:52;;;;;;;41.35;17.25;;;;;;;-5.56;78.12;102534.52;1394641;88;21213;-83
2023/02/07 01:52:35;;;;;;;33.65;15.88;;;;;;;-5.55;78.19;102540.14;1558295;88;22220;-84
2023/02/07 01:55:06;;;;;;;29.98;13.50;;;;;;;-5.50;77.71;102544.01;1393840;91;22138;-84
2023/02/07 01:57:33;;;;;;;24.05;12.98;;;;;;;-5.53;78.22;102533.67;1557861;88;21294;-82
2023/02/07 02:00:00;;;;;;;29.00;15.38;;;;;;;-5.50;78.18;102537.12;1397829;88;21640;-81
2023/02/07 02:02:31;;;;;;;26.42;12.35;;;;;;;-5.46;77.86;102532.42;1397497;88;21404;-83
2023/02/07 02:04:58;;;;;;;30.40;12.35;;;;;;;-5.47;77.70;102526.84;1394372;90;21406;-82
2023/02/07 02:07:27;;;;;;;24.55;12.07;;;;;;;-5.46;77.72;102522.11;1398114;88;21331;-84
2023/02/07 02:09:53;;;;;;;22.95;10.70;;;;;;;-5.46;77.49;102522.11;1401969;88;21353;-85
2023/02/07 02:12:34;;;;;;;22.00;12.10;;;;;;;-5.46;77.54;102519.95;1398250;88;21213;-87
2023/02/07 02:15:26;;;;;;;22.37;10.00;;;;;;;-5.46;77.45;102516.09;1559292;88;21381;-84
2023/02/07 02:18:21;;;;;;;20.23;10.28;;;;;;;-5.51;77.62;102519.07;1552682;88;22205;-84
2023/02/07 02:21:19;;;;;;;23.18;12.07;;;;;;;-5.51;77.62;102513.48;1543518;88;21376;-86
2023/02/07 02:24:08;;;;;;;29.42;12.25;;;;;;;-5.50;77.54;102509.17;1472939;88;22413;-87
2023/02/07 02:26:59;;;;;;;19.40;10.90;;;;;;;-5.47;77.35;102509.18;1477057;88;21559;-84
2023/02/07 02:29:46;;;;;;;21.52;11.80;;;;;;;-5.47;77.31;102507.48;1472970;88;21569;-83
2023/02/07 02:32:42;;;;;;;23.25;11.15;;;;;;;-5.48;77.37;102509.62;1463544;88;21456;-82
2023/02/07 02:36:05;;;;;;;21.73;10.65;;;;;;;-5.53;77.60;102510.02;1467357;88;21739;-82
2023/02/07 02:38:39;;;;;;;21.57;10.03;;;;;;;-5.49;77.47;102510.92;1469081;89;22307;-85
2023/02/07 02:41:32;;;;;;;22.37;10.68;;;;;;;-5.45;77.23;102507.05;1468210;88;21589;-82
2023/02/07 02:44:19;;;;;;;22.40;10.10;;;;;;;-5.46;77.39;102518.23;1466708;89;21775;-83
2023/02/07 02:46:47;;;;;;;24.63;12.25;;;;;;;-5.49;77.51;102516.08;1468494;89;21549;-84
2023/02/07 02:49:16;;;;;;;22.45;11.10;;;;;;;-5.45;77.38;102508.33;1458502;89;22646;-84
2023/02/07 02:51:42;;;;;;;20.17;10.05;;;;;;;-5.38;77.30;102514.80;1462881;89;21391;-83
2023/02/07 02:54:31;;;;;;;19.57;9.38;;;;;;;-5.43;77.53;102519.11;1464991;89;22352;-83
2023/02/07 02:57:29;;;;;;;27.70;11.63;;;;;;;-5.38;77.45;102516.98;1464582;89;22814;-84
2023/02/07 03:00:46;;;;;;;24.72;12.82;;;;;;;-5.37;77.54;102520.42;1465451;89;22284;-83
2023/02/07 03:03:18;;;;;;;18.48;10.28;;;;;;;-5.38;77.47;102518.67;1468258;89;21597;-85
2023/02/07 03:06:20;;;;;;;20.57;10.45;;;;;;;-5.35;77.41;102514.81;1463014;89;21530;-84
2023/02/07 03:09:29;;;;;;;23.07;12.03;;;;;;;-5.38;77.29;102516.09;1467781;89;21309;-85
2023/02/07 03:12:21;;;;;;;25.62;11.95;;;;;;;-5.33;77.39;102511.81;1464638;89;21376;-82
2023/02/07 03:15:02;;;;;;;26.05;12.23;;;;;;;-5.30;77.18;102503.64;1469447;89;21497;-83
2023/02/07 03:18:01;;;;;;;26.12;12.03;;;;;;;-5.28;77.39;102503.66;1462763;89;22390;-83
2023/02/07 03:20:47;;;;;;;29.20;14.15;;;;;;;-5.28;77.17;102506.24;1470563;88;21604;-81
2023/02/07 03:23:15;;;;;;;22.87;12.28;;;;;;;-5.21;77.13;102506.67;1468411;89;21471;-82
2023/02/07 03:25:43;;;;;;;26.10;11.10;;;;;;;-5.20;77.38;102500.67;1464595;88;21457;-82
2023/02/07 03:28:13;;;;;;;27.75;13.78;;;;;;;-5.17;77.07;102500.68;1470192;88;22293;-81
2023/02/07 03:30:42;;;;;;;26.42;12.53;;;;;;;-5.10;76.98;102506.27;1464148;88;22336;-82
2023/02/07 03:33:12;;;;;;;27.30;11.75;;;;;;;-5.05;76.90;102505.00;1456133;88;21375;-79
2023/02/07 03:36:09;;;;;;;35.70;13.98;;;;;;;-5.03;76.72;102511.90;1471200;88;21382;-82
2023/02/07 03:38:37;;;;;;;29.65;12.05;;;;;;;-4.97;76.37;102509.76;1470473;88;21470;-85
2023/02/07 03:41:11;;;;;;;25.95;12.18;;;;;;;-4.97;76.11;102508.47;1476268;88;21383;-81
2023/02/07 03:43:38;;;;;;;24.20;11.33;;;;;;;-4.93;76.12;102504.16;1467699;88;22037;-81
2023/02/07 03:46:08;;;;;;;25.12;12.10;;;;;;;-4.91;75.98;102505.03;1473675;88;21478;-84
2023/02/07 03:48:35;;;;;;;26.20;13.85;;;;;;;-4.85;75.97;102501.16;1473813;88;21418;-83
2023/02/07 03:51:03;;;;;;;26.10;12.15;;;;;;;-4.85;75.95;102506.33;1476781;88;21574;-81
2023/02/07 03:53:30;;;;;;;27.98;13.22;;;;;;;-4.85;75.99;102503.30;1394483;88;21598;-86
2023/02/07 03:55:56;;;;;;;25.95;12.40;;;;;;;-4.82;75.69;102500.72;1398338;88;21257;-84
2023/02/07 03:58:22;;;;;;;30.75;13.70;;;;;;;-4.84;75.76;102500.28;1398723;88;21324;-86
2023/02/07 04:00:48;;;;;;;22.77;11.20;;;;;;;-4.83;75.66;102497.72;1469227;88;21390;-86
2023/02/07 04:03:15;;;;;;;25.25;12.63;;;;;;;-4.83;75.88;102500.73;1468502;88;21427;-87
2023/02/07 04:05:42;;;;;;;26.95;12.53;;;;;;;-4.81;75.55;102499.84;1468409;88;21353;-84
2023/02/07 04:08:09;;;;;;;22.85;11.75;;;;;;;-4.78;75.76;102498.99;1473462;88;21404;-84
2023/02/07 04:10:35;;;;;;;23.18;12.13;;;;;;;-4.82;75.19;102510.20;1477366;88;21527;-85
2023/02/07 04:13:01;;;;;;;21.50;10.25;;;;;;;-4.82;74.85;102507.62;1473066;88;21524;-82
2023/02/07 04:15:27;;;;;;;29.45;11.08;;;;;;;-4.80;74.80;102513.66;1472954;88;21915;-85
2023/02/07 04:17:53;;;;;;;24.60;11.93;;;;;;;-4.85;74.39;102523.11;1477849;88;22091;-81
2023/02/07 04:20:20;;;;;;;22.52;10.70;;;;;;;-4.81;74.53;102535.16;1472455;88;21404;-84
2023/02/07 04:22:46;;;;;;;18.45;8.28;;;;;;;-4.89;74.42;102539.45;1472559;88;22990;-82
2023/02/07 04:25:12;;;;;;;28.42;11.65;;;;;;;-4.88;74.38;102538.17;1472850;88;21353;-84
2023/02/07 04:27:38;;;;;;;23.02;11.60;;;;;;;-4.91;74.49;102546.36;1462244;88;21368;-83
2023/02/07 04:30:05;;;;;;;21.12;10.38;;;;;;;-4.85;74.36;102546.36;1475369;88;22506;-84
2023/02/07 04:32:31;;;;;;;22.62;11.90;;;;;;;-4.85;74.53;102546.36;1467724;88;21340;-85
2023/02/07 04:34:57;;;;;;;25.48;11.08;;;;;;;-4.84;74.25;102542.91;1471637;88;21839;-82
2023/02/07 04:37:23;;;;;;;27.55;12.58;;;;;;;-4.91;74.12;102545.06;1474906;88;21553;-82
2023/02/07 04:39:50;;;;;;;22.05;10.10;;;;;;;-4.92;74.15;102542.91;1471016;88;21486;-83
2023/02/07 04:42:16;;;;;;;17.35;9.48;;;;;;;-4.95;73.83;102545.90;1467645;88;21670;-83
2023/02/07 04:44:43;;;;;;;26.75;12.28;;;;;;;-4.97;73.63;102551.52;1469058;88;21308;-81
2023/02/07 04:47:09;;;;;;;22.62;11.55;;;;;;;-4.97;73.66;102551.52;1467099;88;22902;-84
2023/02/07 04:49:35;;;;;;;23.83;12.18;;;;;;;-4.96;73.72;102558.39;1474383;88;21405;-82
2023/02/07 04:52:01;;;;;;;25.97;13.75;;;;;;;-5.01;73.60;102553.20;1470458;88;21567;-82
2023/02/07 04:58:47;;;;;;;23.67;12.20;;;;;;;-4.96;73.37;102555.81;1470279;88;21604;-83
2023/02/07 05:01:14;;;;;;;28.02;13.40;;;;;;;-4.97;73.39;102560.12;1476474;88;21507;-82
2023/02/07 05:03:40;;;;;;;25.55;12.13;;;;;;;-5.03;73.42;102564.84;1469548;88;21547;-82
2023/02/07 05:06:08;;;;;;;21.33;10.45;;;;;;;-5.00;73.56;102566.13;1478211;88;21478;-84
2023/02/07 05:08:36;;;;;;;21.48;10.88;;;;;;;-4.98;73.71;102568.70;1475109;88;21548;-84
2023/02/07 05:11:04;;;;;;;31.30;15.48;;;;;;;-5.00;73.68;102568.72;1402119;88;21368;-83
2023/02/07 05:13:31;;;;;;;29.60;14.00;;;;;;;-4.93;73.86;102563.56;1396698;88;21265;-82
2023/02/07 05:15:57;;;;;;;29.32;14.38;;;;;;;-4.95;73.80;102567.85;1397449;88;21250;-82
2023/02/07 05:18:24;;;;;;;27.52;13.58;;;;;;;-4.87;73.75;102563.57;1403709;88;21339;-83
2023/02/07 05:20:52;;;;;;;28.05;14.87;;;;;;;-4.86;73.79;102563.99;1558836;88;21309;-81
2023/02/07 05:23:18;;;;;;;30.85;14.00;;;;;;;-4.89;73.97;102567.46;1391795;88;21502;-82
2023/02/07 05:25:47;;;;;;;35.17;17.15;;;;;;;-4.96;73.70;102567.00;1393914;88;21266;-81
2023/02/07 05:28:14;;;;;;;28.67;14.63;;;;;;;-4.87;74.13;102563.13;1393120;89;22220;-80
2023/02/07 05:30:40;;;;;;;27.00;13.65;;;;;;;-4.87;74.02;102560.98;1536560;88;21442;-83
2023/02/07 05:33:07;;;;;;;27.98;12.73;;;;;;;-4.89;74.05;102562.70;1381726;90;21228;-82
2023/02/07 05:35:37;;;;;;;26.65;13.95;;;;;;;-4.89;73.88;102557.12;1398201;88;21380;-81
2023/02/07 05:38:07;;;;;;;31.90;15.25;;;;;;;-4.89;73.80;102557.53;1559246;88;21273;-81
2023/02/07 05:40:35;;;;;;;24.47;11.38;;;;;;;-4.82;73.72;102556.70;1394221;88;21421;-83
2023/02/07 05:43:02;;;;;;;28.57;13.08;;;;;;;-4.84;73.50;102560.99;1402341;88;21250;-83
2023/02/07 05:45:28;;;;;;;24.47;11.93;;;;;;;-4.80;73.32;102557.58;1398311;88;21362;-79
2023/02/07 05:47:54;;;;;;;26.02;11.38;;;;;;;-4.77;73.39;102558.87;1398360;88;21236;-81
2023/02/07 05:50:21;;;;;;;31.55;13.25;;;;;;;-4.81;73.51;102559.27;1404439;88;21405;-81
2023/02/07 05:52:47;;;;;;;29.65;13.50;;;;;;;-4.77;73.27;102560.16;1399524;88;21243;-82
2023/02/07 05:55:14;;;;;;;30.70;11.43;;;;;;;-4.77;73.06;102561.45;1398333;88;21581;-83
2023/02/07 05:57:42;;;;;;;27.65;11.95;;;;;;;-4.79;72.79;102565.31;1404006;88;21213;-81
2023/02/07 06:00:18;;;;;;;23.40;11.38;;;;;;;-4.80;72.35;102562.30;1559149;88;22304;-83
2023/02/07 06:02:44;;;;;;;22.67;10.30;;;;;;;-4.72;72.71;102568.75;1394272;88;21383;-79
2023/02/07 06:05:15;;;;;;;25.48;11.95;;;;;;;-4.70;72.43;102578.67;1398306;88;21376;-80
2023/02/07 06:07:46;;;;;;;18.50;9.75;;;;;;;-4.70;72.31;102578.67;1395316;88;21309;-82
2023/02/07 06:10:13;;;;;;;25.85;10.72;;;;;;;-4.69;72.04;102584.29;1559291;88;21281;-82
2023/02/07 06:12:39;;;;;;;24.23;11.68;;;;;;;-4.61;71.74;102588.16;1397312;88;21236;-83
2023/02/07 06:15:08;;;;;;;17.07;7.03;;;;;;;-4.61;71.63;102584.28;1404950;88;22180;-83
2023/02/07 06:17:34;;;;;;;18.15;9.03;;;;;;;-4.63;71.45;102584.30;1396303;88;21250;-86
2023/02/07 06:20:01;;;;;;;21.73;9.38;;;;;;;-4.63;71.43;102573.95;1404519;88;21442;-87
2023/02/07 06:22:27;;;;;;;21.73;10.00;;;;;;;-4.61;71.47;102576.53;1398522;88;21316;-80
2023/02/07 06:24:53;;;;;;;21.42;9.18;;;;;;;-4.61;71.56;102574.80;1415927;88;21360;-83
2023/02/07 06:27:20;;;;;;;27.73;9.18;;;;;;;-4.59;71.32;102564.48;1476006;88;22285;-80
2023/02/07 06:29:46;;;;;;;22.00;10.05;;;;;;;-4.61;71.02;102572.22;1468503;88;21515;-83
2023/02/07 06:32:12;;;;;;;24.72;11.30;;;;;;;-4.55;71.41;102561.02;1476151;88;21552;-83
2023/02/07 06:34:39;;;;;;;24.27;12.30;;;;;;;-4.51;71.21;102567.08;1481321;88;21441;-81
2023/02/07 06:37:05;;;;;;;17.62;9.93;;;;;;;-4.47;71.36;102572.67;1471575;88;21479;-83
2023/02/07 06:39:31;;;;;;;19.48;10.18;;;;;;;-4.45;71.08;102565.78;1477625;88;21381;-82
2023/02/07 06:41:57;;;;;;;18.55;8.90;;;;;;;-4.46;71.31;102559.76;1471877;88;21382;-82
2023/02/07 06:44:23;;;;;;;22.67;9.80;;;;;;;-4.48;71.06;102565.78;1471743;88;21383;-80
2023/02/07 06:46:50;;;;;;;25.72;9.03;;;;;;;-4.41;71.08;102568.35;1472437;88;21498;-82
2023/02/07 06:49:16;;;;;;;19.05;9.23;;;;;;;-4.44;70.94;102569.64;1459140;88;21368;-83
2023/02/07 06:51:47;;;;;;;21.27;10.10;;;;;;;-4.36;70.77;102570.52;1469510;88;22269;-83
2023/02/07 06:54:13;;;;;;;;;;;;;;;-4.34;70.87;102573.97;1476255;88;21552;-86
2023/02/07 06:56:39;;;;;;;14.50;8.80;;;;;;;-4.37;70.68;102560.19;1473637;88;20811;-86
2023/02/07 06:59:17;;;;;;;20.40;9.68;;;;;;;-4.32;70.61;102566.20;1471742;88;21472;-86
2023/02/07 07:01:43;;;;;;;18.57;8.45;;;;;;;-4.30;70.95;102568.36;1541095;88;21354;-85
2023/02/07 07:04:10;;;;;;;18.02;8.85;;;;;;;-4.32;70.53;102570.08;1398912;88;22153;-85
2023/02/07 07:06:36;;;;;;;19.35;9.25;;;;;;;-4.24;70.38;102572.67;1398709;88;21376;-86
2023/02/07 07:09:03;;;;;;;19.73;9.38;;;;;;;-4.26;70.42;102576.97;1405181;88;21383;-85
2023/02/07 07:11:29;;;;;;;19.55;8.35;;;;;;;-4.18;70.25;102579.13;1397687;88;21383;-87
2023/02/07 07:13:55;;;;;;;24.10;9.25;;;;;;;-4.21;69.87;102574.81;1398726;88;21250;-86
2023/02/07 07:16:22;;;;;;;20.05;9.08;;;;;;;-4.17;70.06;102581.73;1398789;88;21372;-86
2023/02/07 07:18:50;;;;;;;26.68;9.48;;;;;;;-4.13;70.01;102589.05;1464121;88;21419;-84
2023/02/07 07:21:16;;;;;;;17.65;8.05;;;;;;;-4.05;70.05;102586.47;1472984;88;21508;-87
2023/02/07 07:23:43;;;;;;;19.67;8.20;;;;;;;-4.07;69.94;102583.00;1474753;88;21449;-85
2023/02/07 07:26:09;;;;;;;14.70;6.97;;;;;;;-4.05;69.87;102588.61;1474472;88;22620;-85
2023/02/07 07:28:35;;;;;;;15.45;7.65;;;;;;;-4.05;69.32;102593.78;1474171;88;21287;-86
2023/02/07 07:31:07;;;;;;;19.35;8.60;;;;;;;-4.06;69.22;102590.75;1524847;88;21331;-85
2023/02/07 07:36:09;;;;;;;22.95;10.55;;;;;;;-3.87;69.17;102585.13;1484219;86;28329;-83
2023/02/07 07:38:35;;;;;;;19.37;9.03;;;;;;;-3.93;69.12;102588.59;1461706;88;21463;-85
2023/02/07 07:41:01;;;;;;;16.07;7.67;;;;;;;-3.95;68.77;102577.81;1473704;87;21454;-83
2023/02/07 07:43:28;;;;;;;22.22;8.93;;;;;;;-3.96;68.92;102579.98;1470452;87;21405;-86
2023/02/07 07:46:00;;;;;;;19.52;9.95;;;;;;;-3.93;68.64;102585.14;1445728;88;22111;-84
2023/02/07 07:48:27;;;;;;;21.35;10.63;;;;;;;-3.85;68.96;102582.12;1472277;87;21443;-86
2023/02/07 07:50:54;;;;;;;18.45;7.90;;;;;;;-3.77;68.95;102580.79;1473714;87;21620;-85
2023/02/07 07:53:21;;;;;;;23.35;8.93;;;;;;;-3.72;68.69;102585.09;1472331;87;21435;-86
2023/02/07 07:55:53;;;;;;;14.10;7.03;;;;;;;-3.74;67.83;102581.67;1478361;87;22455;-86
2023/02/07 07:58:21;;;;;;;15.13;6.47;;;;;;;-3.67;68.21;102583.80;1472774;87;21661;-85
2023/02/07 08:00:47;;;;;;;12.68;6.15;;;;;;;-3.59;67.42;102585.94;1472358;87;21448;-86
2023/02/07 08:03:21;;;;;;;17.73;8.88;;;;;;;-3.54;67.19;102593.27;1472727;87;22062;-85
2023/02/07 08:05:48;;;;;;;24.02;9.85;;;;;;;-3.46;67.33;102597.10;1558299;87;21510;-85
2023/02/07 08:08:16;;;;;;;17.80;9.20;;;;;;;-3.34;67.34;102602.23;1393594;87;21384;-85
2023/02/07 08:10:42;;;;;;;18.52;7.40;;;;;;;-3.41;67.25;102594.92;1396344;87;21554;-83
2023/02/07 08:13:09;;;;;;;17.23;6.65;;;;;;;-3.38;66.78;102590.17;1372212;89;21456;-85
2023/02/07 08:15:38;;;;;;;15.13;7.17;;;;;;;-3.28;66.85;102593.58;1401966;88;21620;-82
2023/02/07 08:18:05;;;;;;;20.05;9.25;;;;;;;-3.22;66.61;102587.96;1396250;88;22292;-81
2023/02/07 08:20:31;;;;;;;23.12;10.28;;;;;;;-3.10;66.63;102591.37;1396654;88;21436;-79
2023/02/07 08:22:57;;;;;;;16.52;6.62;;;;;;;-2.91;66.46;102582.60;1557384;88;21303;-80
2023/02/07 08:25:25;;;;;;;19.27;8.10;;;;;;;-2.91;65.42;102586.48;1397283;88;22294;-79
2023/02/07 08:27:52;;;;;;;15.78;7.75;;;;;;;-2.80;65.21;102579.52;1396476;88;21421;-80
2023/02/07 08:30:19;;;;;;;14.85;5.47;;;;;;;-2.88;64.97;102577.41;1396632;88;21368;-80
2023/02/07 08:32:45;;;;;;;14.80;8.43;;;;;;;-2.86;65.05;102575.67;1379091;90;21421;-82
2023/02/07 08:35:12;;;;;;;20.82;9.20;;;;;;;-2.85;65.28;102587.78;1403650;88;21592;-80
2023/02/07 08:37:38;;;;;;;20.35;9.55;;;;;;;-2.78;65.43;102576.48;1544494;89;22235;-80
2023/02/07 08:40:06;;;;;;;11.33;6.45;;;;;;;-2.69;66.12;102586.37;1386638;89;21392;-80
2023/02/07 08:42:32;;;;;;;15.43;7.05;;;;;;;-2.73;64.94;102582.51;1385004;89;21384;-80
2023/02/07 08:45:00;;;;;;;16.23;6.67;;;;;;;-2.65;66.39;102587.62;1411253;89;21629;-80
2023/02/07 08:47:26;;;;;;;11.75;6.42;;;;;;;-2.74;65.05;102585.95;1461261;89;21510;-81
2023/02/07 08:49:52;;;;;;;12.58;6.62;;;;;;;-2.53;65.85;102584.11;1439603;89;21456;-80
2023/02/07 08:52:19;;;;;;;13.18;7.90;;;;;;;-2.56;65.52;102581.52;1460718;89;21649;-81
2023/02/07 08:54:45;;;;;;;20.95;11.03;;;;;;;-2.48;65.84;102579.73;1465259;89;21686;-81
2023/02/07 08:57:12;;;;;;;16.82;8.93;;;;;;;-2.53;65.06;102586.70;1462566;89;21546;-81
2023/02/07 08:59:38;;;;;;;20.40;8.23;;;;;;;-2.43;65.29;102577.97;1457331;89;21652;-81
2023/02/07 09:02:04;;;;;;;22.87;10.32;;;;;;;-2.33;66.01;102591.30;1461324;89;21465;-79
2023/02/07 09:04:30;;;;;;;16.95;8.78;;;;;;;-2.37;65.31;102577.92;1462019;89;21413;-80
2023/02/07 09:06:56;;;;;;;22.02;10.40;;;;;;;-2.28;65.22;102582.17;1459553;89;21463;-81
2023/02/07 09:09:23;;;;;;;16.50;7.70;;;;;;;-2.30;65.13;102578.31;1442144;89;21428;-79
2023/02/07 09:11:50;;;;;;;18.37;8.28;;;;;;;-2.27;64.99;102577.42;1459567;89;21472;-86
2023/02/07 09:14:16;;;;;;;17.35;8.83;;;;;;;-2.20;65.60;102575.63;1459392;89;21628;-83
2023/02/07 09:16:42;;;;;;;14.83;7.22;;;;;;;-2.31;64.93;102579.60;1460109;89;21428;-81
2023/02/07 09:19:15;;;;;;;16.48;7.90;;;;;;;-2.33;64.76;102575.73;1456654;89;21427;-81
2023/02/07 09:21:41;;;;;;;19.12;9.95;;;;;;;-2.20;64.79;102574.33;1457263;89;22529;-80
2023/02/07 09:24:07;;;;;;;14.40;8.68;;;;;;;-1.95;64.68;102575.83;1459252;89;21440;-80
2023/02/07 09:26:34;;;;;;;14.47;8.18;;;;;;;-1.87;64.42;102574.02;1463017;89;21716;-81
2023/02/07 09:29:01;;;;;;;12.88;6.90;;;;;;;-1.64;64.48;102576.79;1459277;89;21398;-81
2023/02/07 09:31:27;;;;;;;18.20;7.90;;;;;;;-1.79;62.40;102568.73;1466317;89;22455;-79
2023/02/07 09:33:53;;;;;;;11.65;5.50;;;;;;;-1.65;62.79;102569.89;1460384;89;21524;-79
2023/02/07 09:36:24;;;;;;;13.18;6.83;;;;;;;-1.68;61.94;102561.69;1458793;88;21538;-81
2023/02/07 09:38:51;;;;;;;11.20;5.90;;;;;;;-1.44;61.94;102568.36;1460534;89;21443;-81
2023/02/07 09:41:58;;;;;;;15.15;6.75;;;;;;;-1.34;61.01;102560.45;1477038;89;21531;-81
2023/02/07 09:44:50;;;;;;;14.83;6.97;;;;;;;-0.97;60.75;102553.88;1457413;89;21545;-83
2023/02/07 09:47:23;;;;;;;27.90;12.83;;;;;;;-0.53;59.74;102559.29;1461732;89;21676;-81
2023/02/07 09:50:09;;;;;;;23.17;11.17;;;;;;;-0.11;59.19;102554.27;1463275;89;21739;-86
2023/02/07 09:52:44;;;;;;;16.00;6.93;;;;;;;0.21;57.60;102554.97;1456184;89;21983;-81
2023/02/07 09:55:27;;;;;;;13.30;7.50;;;;;;;0.47;57.13;102552.30;1462501;89;21637;-82
2023/02/07 09:58:19;;;;;;;12.93;6.60;;;;;;;1.08;54.98;102540.10;1449589;89;21921;-82
2023/02/07 10:00:54;;;;;;;10.70;5.70;;;;;;;1.22;53.68;102538.48;1456417;89;22071;-83
2023/02/07 10:03:25;;;;;;;11.93;5.83;;;;;;;0.96;52.31;102539.54;1458540;89;22891;-83
2023/02/07 10:06:18;;;;;;;10.65;5.70;;;;;;;1.40;52.64;102537.19;1451478;89;22137;-84
2023/02/07 10:08:53;;;;;;;12.50;5.83;;;;;;;2.07;52.25;102534.59;1458569;89;21465;-82
2023/02/07 10:11:33;;;;;;;12.23;6.73;;;;;;;2.37;50.53;102522.91;1461460;89;21616;-79
2023/02/07 10:14:10;;;;;;;11.77;5.43;;;;;;;1.93;50.46;102530.22;1460229;89;22585;-84
2023/02/07 10:16:57;;;;;;;7.37;4.50;;;;;;;2.29;51.24;102524.42;1462162;89;21488;-83
2023/02/07 10:19:44;;;;;;;13.43;6.63;;;;;;;1.87;49.61;102520.80;1465473;89;21420;-85
2023/02/07 10:22:28;;;;;;;10.23;5.73;;;;;;;2.67;49.78;102523.31;1412583;89;21792;-83
2023/02/07 10:25:35;;;;;;;8.87;5.40;;;;;;;2.80;48.13;102517.73;1459050;89;21406;-78
2023/02/07 10:28:19;;;;;;;10.50;6.13;;;;;;;2.30;48.25;102520.05;1457297;89;21502;-78
2023/02/07 10:30:53;;;;;;;13.93;7.83;;;;;;;1.99;49.79;102519.61;1456553;89;21722;-77
2023/02/07 10:33:25;;;;;;;11.37;6.30;;;;;;;2.02;50.83;102511.69;1460859;89;22404;-79
2023/02/07 10:35:52;;;;;;;13.70;6.13;;;;;;;1.64;51.04;102502.23;1466441;88;22397;-75
2023/02/07 10:38:42;;;;;;;9.10;5.43;;;;;;;1.68;51.03;102508.66;1461939;88;22316;-87
2023/02/07 10:41:19;;;;;;;14.73;8.07;;;;;;;1.63;51.09;102504.45;1437809;90;21723;-85
2023/02/07 10:43:46;;;;;;;10.07;5.57;;;;;;;1.81;50.51;102498.73;1470083;89;21576;-88
2023/02/07 10:46:19;;;;;;;8.47;4.97;;;;;;;1.40;50.84;102499.80;1462324;88;22345;-87
2023/02/07 10:48:45;;;;;;;9.57;5.70;;;;;;;1.93;49.83;102494.97;1461936;89;21583;-87
2023/02/07 10:51:33;;;;;;;10.23;6.60;;;;;;;2.09;49.70;102487.55;1470694;89;21436;-87
2023/02/07 10:54:10;;;;;;;11.83;6.33;;;;;;;2.83;49.80;102483.18;1464020;89;21509;-88
2023/02/07 10:56:44;;;;;;;12.03;6.50;;;;;;;2.79;49.41;102484.20;1464645;89;21443;-88
2023/02/07 10:59:46;;;;;;;11.87;6.00;;;;;;;2.55;49.25;102479.70;1462739;89;21443;-87
2023/02/07 11:02:37;;;;;;;16.17;5.70;;;;;;;2.61;49.15;102472.97;1468868;89;21672;-86
2023/02/07 11:05:21;;;;;;;10.75;6.05;;;;;;;2.42;48.60;102470.06;1468702;89;21536;-89
2023/02/07 11:08:21;;;;;;;12.43;6.70;;;;;;;2.63;48.09;102466.80;1468685;89;21473;-88
2023/02/07 11:10:51;;;;;;;10.90;6.60;;;;;;;2.57;49.33;102466.98;1461599;88;21517;-87
2023/02/07 11:13:28;;;;;;;13.10;5.93;;;;;;;2.83;49.06;102461.41;1464690;89;21488;-86
2023/02/07 11:16:06;;;;;;;9.30;5.83;;;;;;;2.88;49.88;102463.44;1460607;88;21679;-87
2023/02/07 11:18:59;;;;;;;20.90;5.67;;;;;;;2.40;48.71;102466.63;1459359;89;21619;-87
2023/02/07 11:21:42;;;;;;;11.47;5.90;;;;;;;2.05;49.94;102458.05;1450726;89;21658;-85
2023/02/07 11:24:24;;;;;;;9.83;5.43;;;;;;;2.06;50.14;102462.37;1463302;89;21531;-87
2023/02/07 11:27:01;;;;;;;10.67;5.53;;;;;;;2.58;49.91;102458.69;1450253;89;21458;-87
2023/02/07 11:29:30;;;;;;;9.07;5.53;;;;;;;2.38;49.75;102457.97;1468263;89;22360;-87
2023/02/07 11:31:59;;;;;;;9.07;6.10;;;;;;;2.34;49.56;102453.75;1462297;89;21517;-89
2023/02/07 11:34:53;;;;;;;9.63;5.90;;;;;;;2.39;50.11;102459.70;1458813;89;21472;-85
2023/02/07 11:37:27;;;;;;;12.43;7.00;;;;;;;2.27;49.41;102460.89;1461803;89;21641;-86
2023/02/07 11:40:28;;;;;;;11.00;6.87;;;;;;;2.47;51.04;102453.77;1464447;88;21591;-87
2023/02/07 11:43:17;;;;;;;11.67;6.97;;;;;;;2.97;50.53;102456.59;1464768;88;21420;-88